createdAt,value
2023-01-07T00:00:25.294Z,5.13
2023-01-07T00:03:02.353Z,5.82
2023-01-07T00:05:30.577Z,7.03
2023-01-07T00:08:00.381Z,4.57
2023-01-07T00:10:28.693Z,6.18
2023-01-07T00:12:59.028Z,5.32
2023-01-07T00:15:27.403Z,5.50
2023-01-07T00:17:55.922Z,5.05
2023-01-07T00:20:25.177Z,5.65
2023-01-07T00:22:53.480Z,4.25
2023-01-07T00:25:21.862Z,5.35
2023-01-07T00:27:53.264Z,7.47
2023-01-07T00:30:23.035Z,5.95
2023-01-07T00:33:05.130Z,5.47
2023-01-07T00:35:34.352Z,4.32
2023-01-07T00:38:02.552Z,5.97
2023-01-07T00:40:32.223Z,4.85
2023-01-07T00:43:05.192Z,5.63
2023-01-07T00:45:37.905Z,5.35
2023-01-07T00:48:06.803Z,4.68
2023-01-07T00:50:36.782Z,5.47
2023-01-07T00:53:05.794Z,6.38
2023-01-07T00:55:34.204Z,4.25
2023-01-07T00:58:02.420Z,5.05
2023-01-07T01:00:30.783Z,6.47
2023-01-07T01:03:00.517Z,6.15
2023-01-07T01:05:28.631Z,4.95
2023-01-07T01:07:56.908Z,6.18
2023-01-07T01:10:25.102Z,5.32
2023-01-07T01:12:53.529Z,4.97
2023-01-07T01:15:21.827Z,5.50
2023-01-07T01:17:52.239Z,5.05
2023-01-07T01:20:22.512Z,5.20
2023-01-07T01:22:50.796Z,4.25
2023-01-07T01:25:19.109Z,7.07
2023-01-07T01:27:47.250Z,6.32
2023-01-07T01:30:15.316Z,4.88
2023-01-07T01:32:43.658Z,4.82
2023-01-07T01:35:11.785Z,5.03
2023-01-07T01:37:41.273Z,4.95
2023-01-07T01:40:10.872Z,4.80
2023-01-07T01:42:39.080Z,3.53
2023-01-07T01:45:08.272Z,4.38
2023-01-07T01:47:39.944Z,4.53
2023-01-07T01:50:14.658Z,4.50
2023-01-07T01:52:48.735Z,6.03
2023-01-07T01:55:20.032Z,5.13
2023-01-07T01:57:50.176Z,5.28
2023-01-07T02:00:18.437Z,7.70
2023-01-07T02:02:50.100Z,4.90
2023-01-07T02:05:18.660Z,4.88
2023-01-07T02:07:48.198Z,6.22
2023-01-07T02:10:19.452Z,8.38
2023-01-07T02:13:18.876Z,5.70
2023-01-07T02:15:55.333Z,5.57
2023-01-07T02:18:40.821Z,5.85
2023-01-07T02:21:18.953Z,6.00
2023-01-07T02:24:32.822Z,5.88
2023-01-07T02:27:23.097Z,6.70
2023-01-07T02:30:35.364Z,6.70
2023-01-07T02:33:17.717Z,8.45
2023-01-07T02:35:59.301Z,6.43
2023-01-07T02:38:35.454Z,7.32
2023-01-07T02:41:11.725Z,7.65
2023-01-07T02:43:51.494Z,8.13
2023-01-07T02:46:24.759Z,10.50
2023-01-07T02:48:54.281Z,7.68
2023-01-07T02:51:32.117Z,8.68
2023-01-07T02:54:00.837Z,10.52
2023-01-07T02:56:38.021Z,6.97
2023-01-07T02:59:37.727Z,9.55
2023-01-07T03:02:31.031Z,8.77
2023-01-07T03:05:28.792Z,7.65
2023-01-07T03:08:16.480Z,8.65
2023-01-07T03:10:51.137Z,7.43
2023-01-07T03:13:23.897Z,8.60
2023-01-07T03:15:57.373Z,7.18
2023-01-07T03:18:30.198Z,7.38
2023-01-07T03:21:05.012Z,6.93
2023-01-07T03:23:37.128Z,6.97
2023-01-07T03:26:09.098Z,7.10
2023-01-07T03:28:41.581Z,7.35
2023-01-07T03:31:12.790Z,7.95
2023-01-07T03:33:46.833Z,6.60
2023-01-07T03:36:19.306Z,6.78
2023-01-07T03:38:49.370Z,7.00
2023-01-07T03:41:31.385Z,6.47
2023-01-07T03:43:59.680Z,10.30
2023-01-07T03:46:27.928Z,10.65
2023-01-07T03:48:57.364Z,6.38
2023-01-07T03:51:26.827Z,6.18
2023-01-07T03:53:57.348Z,6.97
2023-01-07T03:56:25.436Z,6.70
2023-01-07T03:58:53.559Z,6.00
2023-01-07T04:01:21.745Z,6.97
2023-01-07T04:03:49.951Z,6.03
2023-01-07T04:06:19.214Z,7.32
2023-01-07T04:08:48.684Z,6.18
2023-01-07T04:11:16.848Z,7.70
2023-01-07T04:13:44.889Z,7.90
2023-01-07T04:16:14.136Z,6.53
2023-01-07T04:18:42.496Z,6.53
2023-01-07T04:21:10.566Z,5.93
2023-01-07T04:23:42.226Z,10.25
2023-01-07T04:26:11.664Z,6.80
2023-01-07T04:28:42.727Z,6.35
2023-01-07T04:31:11.977Z,6.70
2023-01-07T04:33:40.146Z,6.35
2023-01-07T04:36:08.777Z,6.50
2023-01-07T04:38:36.835Z,8.32
2023-01-07T04:41:05.086Z,8.77
2023-01-07T04:43:35.327Z,9.93
2023-01-07T04:46:03.935Z,8.25
2023-01-07T04:48:32.127Z,6.38
2023-01-07T04:51:00.607Z,7.10
2023-01-07T04:53:28.675Z,7.57
2023-01-07T04:55:56.744Z,8.32
2023-01-07T04:58:25.180Z,7.30
2023-01-07T05:00:58.251Z,8.23
2023-01-07T05:03:26.783Z,7.97
2023-01-07T05:05:54.844Z,7.40
2023-01-07T05:08:22.987Z,7.68
2023-01-07T05:10:51.329Z,10.48
2023-01-07T05:13:20.675Z,7.20
2023-01-07T05:15:49.332Z,8.65
2023-01-07T05:18:18.826Z,9.23
2023-01-07T05:20:47.634Z,6.70
2023-01-07T05:23:15.720Z,6.50
2023-01-07T05:25:44.012Z,7.43
2023-01-07T05:28:12.903Z,7.53
2023-01-07T05:30:41.091Z,8.70
2023-01-07T05:33:09.410Z,8.95
2023-01-07T05:35:38.981Z,6.88
2023-01-07T05:38:07.023Z,7.28
2023-01-07T05:40:35.147Z,7.57
2023-01-07T05:43:03.181Z,9.70
2023-01-07T05:45:31.213Z,8.27
2023-01-07T05:47:59.361Z,7.72
2023-01-07T05:50:27.533Z,7.70
2023-01-07T05:52:56.959Z,8.93
2023-01-07T05:55:25.022Z,7.55
2023-01-07T05:57:53.073Z,7.45
2023-01-07T06:00:21.196Z,7.65
2023-01-07T06:02:50.424Z,8.45
2023-01-07T06:05:18.579Z,7.82
2023-01-07T06:07:47.383Z,8.27
2023-01-07T06:10:16.994Z,9.95
2023-01-07T06:12:45.074Z,7.88
2023-01-07T06:15:13.427Z,9.02
2023-01-07T06:17:41.499Z,7.22
2023-01-07T06:20:11.034Z,7.82
2023-01-07T06:22:39.089Z,7.90
2023-01-07T06:25:07.496Z,8.48
2023-01-07T06:27:36.957Z,8.15
2023-01-07T06:30:05.857Z,6.95
2023-01-07T06:32:37.772Z,6.82
2023-01-07T06:35:06.982Z,6.60
2023-01-07T06:37:35.377Z,8.38
2023-01-07T06:40:03.568Z,10.18
2023-01-07T06:42:31.701Z,6.63
2023-01-07T06:45:01.241Z,8.00
2023-01-07T06:47:29.315Z,6.72
2023-01-07T06:49:57.496Z,6.40
2023-01-07T06:52:25.542Z,7.38
2023-01-07T06:54:53.620Z,6.53
2023-01-07T06:57:21.702Z,7.93
2023-01-07T06:59:49.765Z,8.40
2023-01-07T07:02:22.631Z,6.32
2023-01-07T07:04:51.891Z,8.55
2023-01-07T07:07:20.122Z,7.53
2023-01-07T07:09:48.515Z,7.70
2023-01-07T07:12:16.562Z,6.40
2023-01-07T07:14:44.670Z,6.28
2023-01-07T07:17:13.053Z,14.38
2023-01-07T07:19:42.593Z,11.70
2023-01-07T07:22:10.810Z,9.32
2023-01-07T07:24:38.950Z,7.93
2023-01-07T07:27:07.034Z,7.40
2023-01-07T07:29:35.216Z,8.18
2023-01-07T07:32:03.406Z,6.85
2023-01-07T07:34:31.440Z,7.50
2023-01-07T07:37:00.863Z,8.23
2023-01-07T07:39:29.023Z,8.25
2023-01-07T07:41:57.060Z,7.93
2023-01-07T07:44:25.152Z,8.35
2023-01-07T07:46:53.321Z,7.43
2023-01-07T07:49:21.545Z,7.10
2023-01-07T07:51:49.595Z,7.80
2023-01-07T07:54:19.022Z,7.60
2023-01-07T07:56:47.174Z,7.63
2023-01-07T07:59:15.233Z,7.32
2023-01-07T08:01:43.365Z,7.63
2023-01-07T08:04:11.486Z,7.50
2023-01-07T08:06:39.563Z,7.60
2023-01-07T08:09:07.836Z,6.85
2023-01-07T08:11:37.329Z,7.25
2023-01-07T08:14:05.378Z,7.95
2023-01-07T08:16:33.924Z,8.25
2023-01-07T08:19:01.965Z,5.65
2023-01-07T08:21:30.042Z,6.97
2023-01-07T08:23:58.096Z,7.35
2023-01-07T08:26:26.147Z,6.65
2023-01-07T08:28:55.618Z,8.90
2023-01-07T08:31:23.862Z,7.07
2023-01-07T08:33:51.942Z,8.48
2023-01-07T08:36:23.720Z,6.82
2023-01-07T08:38:52.943Z,7.80
2023-01-07T08:41:21.459Z,7.32
2023-01-07T08:43:50.375Z,7.75
2023-01-07T08:46:19.932Z,7.15
2023-01-07T08:48:48.004Z,6.93
2023-01-07T08:51:16.268Z,6.78
2023-01-07T08:53:44.463Z,6.57
2023-01-07T08:56:12.529Z,7.10
2023-01-07T08:58:40.573Z,7.25
2023-01-07T09:01:09.310Z,6.88
2023-01-07T09:03:39.761Z,6.90
2023-01-07T09:06:08.539Z,6.40
2023-01-07T09:08:36.646Z,7.00
2023-01-07T09:11:05.098Z,6.60
2023-01-07T09:13:33.233Z,6.38
2023-01-07T09:16:01.467Z,5.63
2023-01-07T09:18:30.584Z,6.15
2023-01-07T09:21:02.440Z,4.82
2023-01-07T09:23:30.636Z,7.15
2023-01-07T09:25:58.694Z,5.57
2023-01-07T09:28:26.797Z,6.70
2023-01-07T09:30:56.836Z,6.40
2023-01-07T09:33:25.101Z,7.28
2023-01-07T09:35:53.348Z,7.13
2023-01-07T09:38:22.843Z,6.13
2023-01-07T09:40:51.270Z,6.13
2023-01-07T09:43:59.949Z,6.97
2023-01-07T09:46:22.193Z,5.95
2023-01-07T09:48:56.436Z,7.40
2023-01-07T09:51:28.515Z,6.35
2023-01-07T09:54:01.426Z,6.90
2023-01-07T09:56:32.187Z,6.57
2023-01-07T09:59:02.084Z,6.15
2023-01-07T10:01:37.391Z,5.78
2023-01-07T10:04:20.204Z,8.45
2023-01-07T10:06:58.317Z,7.03
2023-01-07T10:09:37.155Z,6.63
2023-01-07T10:12:13.880Z,7.90
2023-01-07T10:15:03.379Z,5.25
2023-01-07T10:17:44.366Z,6.93
2023-01-07T10:20:19.355Z,6.13
2023-01-07T10:22:52.401Z,6.32
2023-01-07T10:25:25.565Z,5.35
2023-01-07T10:27:57.122Z,5.22
2023-01-07T10:30:30.920Z,6.80
2023-01-07T10:33:12.728Z,6.18
2023-01-07T10:35:41.879Z,5.85
2023-01-07T10:38:16.375Z,7.82
2023-01-07T10:40:50.012Z,6.03
2023-01-07T10:43:29.502Z,5.60
2023-01-07T10:46:16.898Z,7.97
2023-01-07T10:49:08.280Z,6.20
2023-01-07T10:52:03.755Z,8.13
2023-01-07T10:54:59.748Z,9.05
2023-01-07T10:57:31.351Z,5.85
2023-01-07T11:00:03.899Z,6.75
2023-01-07T11:02:32.329Z,7.43
2023-01-07T11:05:00.884Z,7.80
2023-01-07T11:07:35.572Z,7.32
2023-01-07T11:10:06.517Z,6.43
2023-01-07T11:58:31.002Z,5.55
2023-01-07T12:01:25.597Z,6.35
2023-01-07T12:04:14.644Z,6.40
2023-01-07T12:06:47.632Z,7.57
2023-01-07T12:09:25.933Z,7.15
2023-01-07T12:11:56.195Z,7.20
2023-01-07T12:14:31.780Z,7.20
2023-01-07T12:17:13.356Z,8.35
2023-01-07T12:20:14.659Z,6.88
2023-01-07T12:22:50.491Z,7.80
2023-01-07T12:25:45.508Z,7.75
2023-01-07T12:28:16.697Z,6.43
2023-01-07T12:31:08.403Z,7.40
2023-01-07T12:33:54.281Z,7.18
2023-01-07T12:36:33.156Z,7.53
2023-01-07T12:39:15.534Z,6.65
2023-01-07T12:41:50.451Z,6.80
2023-01-07T12:44:22.891Z,22.15
2023-01-07T12:47:30.932Z,8.18
2023-01-07T12:50:00.008Z,9.73
2023-01-07T12:52:39.628Z,11.18
2023-01-07T12:55:20.843Z,7.90
2023-01-07T12:58:05.307Z,8.43
2023-01-07T13:00:55.252Z,9.38
2023-01-07T13:03:36.008Z,7.90
2023-01-07T13:06:17.182Z,7.40
2023-01-07T13:08:58.842Z,7.35
2023-01-07T13:12:03.721Z,6.65
2023-01-07T13:14:41.431Z,8.93
2023-01-07T13:17:17.242Z,6.65
2023-01-07T13:19:46.813Z,6.60
2023-01-07T13:22:21.479Z,7.85
2023-01-07T13:25:13.663Z,6.97
2023-01-07T13:28:10.646Z,7.55
2023-01-07T13:30:52.997Z,6.28
2023-01-07T13:33:44.346Z,7.55
2023-01-07T13:36:30.171Z,6.70
2023-01-07T13:39:31.976Z,7.75
2023-01-07T13:42:28.220Z,7.40
2023-01-07T13:45:02.915Z,8.23
2023-01-07T13:47:45.894Z,8.02
2023-01-07T13:50:36.414Z,8.48
2023-01-07T13:53:31.239Z,8.23
2023-01-07T13:56:46.078Z,7.25
2023-01-07T13:59:32.264Z,7.00
2023-01-07T14:02:19.772Z,7.10
2023-01-07T14:05:04.481Z,7.25
2023-01-07T14:07:33.736Z,7.45
2023-01-07T14:10:04.641Z,7.30
2023-01-07T14:13:06.311Z,6.75
2023-01-07T14:16:12.877Z,6.68
2023-01-07T14:19:03.001Z,8.23
2023-01-07T14:21:51.062Z,7.88
2023-01-07T14:24:52.708Z,8.05
2023-01-07T14:27:42.531Z,7.25
2023-01-07T14:30:21.631Z,7.65
2023-01-07T14:33:03.293Z,7.13
2023-01-07T14:35:35.512Z,8.35
2023-01-07T14:38:42.343Z,7.43
2023-01-07T14:41:17.760Z,7.05
2023-01-07T14:44:03.851Z,7.95
2023-01-07T14:46:55.811Z,7.97
2023-01-07T14:49:47.490Z,7.20
2023-01-07T14:52:54.432Z,7.82
2023-01-07T14:55:50.947Z,8.95
2023-01-07T14:58:58.657Z,6.55
2023-01-07T15:02:13.082Z,7.38
2023-01-07T15:05:16.473Z,6.57
2023-01-07T15:07:50.079Z,7.68
2023-01-07T15:10:42.045Z,6.80
2023-01-07T15:13:34.849Z,9.55
2023-01-07T15:16:07.427Z,7.93
2023-01-07T15:18:47.174Z,8.27
2023-01-07T15:21:27.128Z,11.20
2023-01-07T15:24:04.803Z,19.40
2023-01-07T15:26:42.474Z,9.60
2023-01-07T15:29:18.612Z,7.45
2023-01-07T15:31:55.884Z,9.20
2023-01-07T15:34:26.793Z,8.05
2023-01-07T15:37:06.229Z,8.55
2023-01-07T15:39:40.386Z,10.88
2023-01-07T15:42:16.229Z,8.45
2023-01-07T15:44:44.601Z,7.85
2023-01-07T15:47:37.146Z,8.60
2023-01-07T15:50:27.441Z,8.50
2023-01-07T15:53:01.004Z,8.50
2023-01-07T15:55:33.618Z,8.98
2023-01-07T15:58:09.576Z,8.40
2023-01-07T16:00:38.015Z,11.50
2023-01-07T16:03:07.155Z,11.15
2023-01-07T16:05:39.436Z,9.35
2023-01-07T16:08:18.344Z,13.00
2023-01-07T16:11:00.134Z,9.52
2023-01-07T16:13:29.081Z,11.93
2023-01-07T16:16:06.657Z,9.15
2023-01-07T16:18:35.166Z,10.27
2023-01-07T16:21:06.663Z,10.88
2023-01-07T16:23:38.356Z,11.13
2023-01-07T16:26:09.021Z,12.57
2023-01-07T16:28:41.963Z,11.82
2023-01-07T16:31:14.462Z,11.32
2023-01-07T16:33:44.251Z,12.18
2023-01-07T16:36:19.279Z,12.60
2023-01-07T16:38:52.779Z,10.68
2023-01-07T16:41:22.651Z,11.13
2023-01-07T16:43:53.095Z,14.55
2023-01-07T16:46:27.116Z,12.38
2023-01-07T16:49:20.259Z,12.38
2023-01-07T16:51:51.709Z,10.50
2023-01-07T16:54:31.372Z,11.52
2023-01-07T16:57:01.549Z,14.02
2023-01-07T16:59:32.854Z,11.98
2023-01-07T17:02:15.506Z,15.77
2023-01-07T17:04:45.665Z,14.18
2023-01-07T17:07:21.972Z,14.40
2023-01-07T17:09:54.809Z,11.48
2023-01-07T17:12:36.674Z,10.82
2023-01-07T17:15:34.898Z,12.75
2023-01-07T17:18:29.155Z,11.65
2023-01-07T17:21:44.120Z,11.00
2023-01-07T17:24:48.031Z,12.05
2023-01-07T17:27:30.619Z,10.80
2023-01-07T17:30:03.785Z,14.80
2023-01-07T17:32:33.052Z,11.50
2023-01-07T17:35:05.290Z,12.57
2023-01-07T17:37:34.073Z,10.70
2023-01-07T17:40:02.678Z,11.80
2023-01-07T17:42:51.766Z,11.67
2023-01-07T17:45:37.882Z,13.40
2023-01-07T17:48:15.690Z,10.57
2023-01-07T17:50:45.096Z,10.97
2023-01-07T17:53:23.756Z,12.10
2023-01-07T17:55:52.998Z,11.17
2023-01-07T17:58:29.350Z,12.80
2023-01-07T18:00:59.154Z,13.48
2023-01-07T18:03:27.780Z,20.23
2023-01-07T18:05:58.049Z,21.87
2023-01-07T18:08:27.868Z,15.83
2023-01-07T18:11:15.021Z,15.63
2023-01-07T18:13:44.913Z,16.63
2023-01-07T18:16:15.540Z,10.60
2023-01-07T18:18:44.220Z,12.73
2023-01-07T18:21:13.486Z,12.77
2023-01-07T18:23:41.836Z,9.83
2023-01-07T18:26:10.258Z,11.52
2023-01-07T18:28:38.559Z,12.43
2023-01-07T18:31:12.788Z,11.43
2023-01-07T18:33:41.715Z,11.73
2023-01-07T18:36:10.829Z,11.80
2023-01-07T18:38:46.385Z,11.57
2023-01-07T18:41:21.287Z,11.87
2023-01-07T18:43:52.586Z,9.70
2023-01-07T18:46:22.404Z,13.77
2023-01-07T18:48:50.670Z,13.20
2023-01-07T18:51:19.039Z,11.60
2023-01-07T18:53:50.528Z,12.13
2023-01-07T18:56:21.106Z,13.30
2023-01-07T18:58:54.618Z,11.33
2023-01-07T19:01:25.346Z,12.23
2023-01-07T19:03:54.943Z,10.43
2023-01-07T19:06:23.236Z,12.37
2023-01-07T19:08:51.562Z,13.60
2023-01-07T19:11:20.870Z,9.67
2023-01-07T19:13:54.493Z,10.97
2023-01-07T19:16:30.452Z,11.07
2023-01-07T19:19:00.998Z,10.07
2023-01-07T19:21:29.247Z,8.33
2023-01-07T19:24:05.338Z,10.60
2023-01-07T19:26:35.339Z,11.27
2023-01-07T19:29:04.771Z,9.57
2023-01-07T19:31:36.530Z,10.83
2023-01-07T19:34:06.694Z,10.87
2023-01-07T19:36:35.181Z,11.27
2023-01-07T19:39:03.556Z,11.70
2023-01-07T19:41:33.061Z,10.07
2023-01-07T19:44:02.046Z,9.60
2023-01-07T19:46:34.469Z,10.27
2023-01-07T19:49:13.447Z,10.23
2023-01-07T19:51:42.950Z,12.27
2023-01-07T19:54:12.887Z,14.23
2023-01-07T19:56:41.380Z,10.67
2023-01-07T19:59:11.887Z,12.43
2023-01-07T20:01:40.712Z,13.83
2023-01-07T20:04:13.383Z,11.77
2023-01-07T20:06:41.807Z,11.90
2023-01-07T20:09:11.642Z,14.63
2023-01-07T20:11:42.580Z,16.60
2023-01-07T20:14:11.976Z,12.73
2023-01-07T20:16:42.099Z,12.10
2023-01-07T20:19:11.723Z,12.43
2023-01-07T20:21:42.283Z,12.87
2023-01-07T20:24:13.219Z,13.03
2023-01-07T20:26:45.186Z,13.90
2023-01-07T20:29:13.659Z,12.00
2023-01-07T20:31:41.742Z,11.53
2023-01-07T20:34:11.358Z,10.10
2023-01-07T20:36:47.944Z,11.10
2023-01-07T20:39:15.935Z,11.43
2023-01-07T20:41:43.951Z,11.80
2023-01-07T20:44:12.653Z,16.87
2023-01-07T20:46:40.815Z,14.27
2023-01-07T20:49:12.339Z,13.50
2023-01-07T20:51:40.464Z,11.40
2023-01-07T20:54:09.877Z,13.50
2023-01-07T20:56:37.934Z,12.07
2023-01-07T20:59:06.112Z,12.30
2023-01-07T21:01:34.425Z,14.03
2023-01-07T21:04:05.936Z,17.43
2023-01-07T21:06:37.235Z,42.50
2023-01-07T21:09:06.404Z,16.93
2023-01-07T21:11:35.971Z,17.17
2023-01-07T21:14:04.438Z,14.90
2023-01-07T21:16:38.021Z,12.90
2023-01-07T21:19:06.453Z,12.73
2023-01-07T21:21:34.940Z,15.37
2023-01-07T21:24:03.052Z,13.77
2023-01-07T21:26:31.474Z,10.30
2023-01-07T21:29:01.493Z,9.77
2023-01-07T21:31:29.928Z,10.60
2023-01-07T21:33:58.761Z,10.67
2023-01-07T21:36:28.435Z,10.30
2023-01-07T21:38:58.362Z,10.83
2023-01-07T21:41:31.030Z,10.90
2023-01-07T21:44:01.832Z,10.53
2023-01-07T21:46:30.393Z,9.80
2023-01-07T21:48:58.887Z,21.73
2023-01-07T21:51:34.260Z,14.13
2023-01-07T21:54:02.259Z,13.77
2023-01-07T21:56:36.723Z,13.83
2023-01-07T21:59:07.962Z,12.67
2023-01-07T22:01:36.602Z,12.67
2023-01-07T22:04:07.995Z,13.23
2023-01-07T22:06:37.565Z,12.87
2023-01-07T22:09:14.420Z,12.53
2023-01-07T22:11:44.099Z,14.43
2023-01-07T22:14:16.562Z,13.63
2023-01-07T22:16:46.936Z,12.63
2023-01-07T22:19:17.384Z,16.80
2023-01-07T22:21:53.206Z,23.07
2023-01-07T22:24:21.635Z,29.73
2023-01-07T22:26:49.757Z,24.83
2023-01-07T22:29:19.411Z,21.97
2023-01-07T22:31:50.037Z,18.93
2023-01-07T22:34:18.540Z,21.60
2023-01-07T22:36:54.374Z,18.37
2023-01-07T22:39:27.240Z,19.67
2023-01-07T22:42:00.613Z,13.87
2023-01-07T22:44:35.044Z,16.80
2023-01-07T22:47:04.408Z,18.77
2023-01-07T22:49:33.860Z,23.53
2023-01-07T22:52:12.158Z,17.87
2023-01-07T22:54:47.938Z,14.17
2023-01-07T22:57:22.443Z,14.10
2023-01-07T22:59:52.457Z,12.63
2023-01-07T23:02:20.687Z,17.50
2023-01-07T23:04:55.517Z,13.47
2023-01-07T23:07:31.324Z,12.17
2023-01-07T23:10:03.667Z,12.83
2023-01-07T23:12:32.147Z,11.37
2023-01-07T23:15:06.251Z,15.10
2023-01-07T23:17:34.937Z,13.47
2023-01-07T23:20:05.771Z,11.67
2023-01-07T23:22:34.312Z,11.43
2023-01-07T23:25:11.248Z,9.97
2023-01-07T23:27:39.747Z,14.70
2023-01-07T23:30:11.064Z,10.00
2023-01-07T23:32:39.547Z,14.10
2023-01-07T23:35:08.830Z,15.10
2023-01-07T23:37:37.310Z,12.00
2023-01-07T23:40:06.571Z,13.13
2023-01-07T23:42:35.046Z,9.73
2023-01-07T23:45:07.325Z,12.80
2023-01-07T23:47:37.120Z,11.90
2023-01-07T23:50:05.902Z,12.80
2023-01-07T23:52:35.400Z,12.20
2023-01-07T23:55:03.682Z,11.80
2023-01-07T23:57:32.014Z,13.77
